Terminal Aerodrome Forecast
Issued by NWS Greer, SC

Home | Current Version | Previous Version | Text Only | Print | Product List | Glossary On
Versions: 1 2 3 4 5 6 7 8 9 10 11 12 13 14 15 16 17 18
000
FTUS42 KGSP 191736
TAFGSP
TAF
KGSP 191736Z 1918/2018 07007KT P6SM SCT120
     FM192000 12005KT P6SM SCT050 BKN100
     FM200600 08004KT 5SM -SHRA BR SCT015 OVC040
      TEMPO 2009/2013 2SM SHRA BR SCT008 OVC012
     FM201300 15003KT 3SM BR OVC008
     FM201600 25003KT P6SM BKN015=

USA.gov is the U.S. government's official web portal to all federal, state and local government web resources and services.